sensor_id;sensor_type;location;lat;lon;timestamp;P1;durP1;ratioP1;P2;durP2;ratioP2
72284;SDS011;60220;53.552;10.092;2023-06-10T00:02:05;4.85;;;3.53;;
72284;SDS011;60220;53.552;10.092;2023-06-10T00:04:32;5.05;;;3.63;;
72284;SDS011;60220;53.552;10.092;2023-06-10T00:06:59;5.53;;;3.30;;
72284;SDS011;60220;53.552;10.092;2023-06-10T00:09:26;5.93;;;2.85;;
72284;SDS011;60220;53.552;10.092;2023-06-10T00:11:55;4.32;;;3.38;;
72284;SDS011;60220;53.552;10.092;2023-06-10T00:14:27;8.63;;;3.43;;
72284;SDS011;60220;53.552;10.092;2023-06-10T00:16:56;7.10;;;3.60;;
72284;SDS011;60220;53.552;10.092;2023-06-10T00:19:25;5.70;;;3.72;;
72284;SDS011;60220;53.552;10.092;2023-06-10T00:21:57;4.63;;;3.45;;
72284;SDS011;60220;53.552;10.092;2023-06-10T00:24:24;7.70;;;3.80;;
72284;SDS011;60220;53.552;10.092;2023-06-10T00:26:51;5.55;;;2.63;;
72284;SDS011;60220;53.552;10.092;2023-06-10T00:29:21;7.20;;;3.67;;
72284;SDS011;60220;53.552;10.092;2023-06-10T00:31:50;4.70;;;3.28;;
72284;SDS011;60220;53.552;10.092;2023-06-10T00:34:22;6.53;;;3.63;;
72284;SDS011;60220;53.552;10.092;2023-06-10T00:36:49;7.20;;;3.55;;
72284;SDS011;60220;53.552;10.092;2023-06-10T00:39:16;5.95;;;3.00;;
72284;SDS011;60220;53.552;10.092;2023-06-10T00:41:43;4.93;;;2.72;;
72284;SDS011;60220;53.552;10.092;2023-06-10T00:44:10;4.45;;;3.20;;
72284;SDS011;60220;53.552;10.092;2023-06-10T00:46:40;4.97;;;3.05;;
72284;SDS011;60220;53.552;10.092;2023-06-10T00:49:07;5.47;;;2.92;;
72284;SDS011;60220;53.552;10.092;2023-06-10T00:51:37;5.47;;;2.75;;
72284;SDS011;60220;53.552;10.092;2023-06-10T00:54:06;5.25;;;2.70;;
72284;SDS011;60220;53.552;10.092;2023-06-10T00:56:33;5.07;;;3.22;;
72284;SDS011;60220;53.552;10.092;2023-06-10T00:59:01;5.28;;;2.78;;
72284;SDS011;60220;53.552;10.092;2023-06-10T01:01:28;5.72;;;2.63;;
72284;SDS011;60220;53.552;10.092;2023-06-10T01:04:00;4.07;;;2.75;;
72284;SDS011;60220;53.552;10.092;2023-06-10T01:06:29;3.58;;;2.97;;
72284;SDS011;60220;53.552;10.092;2023-06-10T01:09:04;5.47;;;2.50;;
72284;SDS011;60220;53.552;10.092;2023-06-10T01:11:40;4.78;;;2.63;;
72284;SDS011;60220;53.552;10.092;2023-06-10T01:14:15;4.22;;;2.15;;
72284;SDS011;60220;53.552;10.092;2023-06-10T01:16:43;7.25;;;2.42;;
72284;SDS011;60220;53.552;10.092;2023-06-10T01:19:12;3.97;;;2.20;;
72284;SDS011;60220;53.552;10.092;2023-06-10T01:21:41;4.05;;;2.63;;
72284;SDS011;60220;53.552;10.092;2023-06-10T01:24:13;6.32;;;2.75;;
72284;SDS011;60220;53.552;10.092;2023-06-10T01:26:43;7.43;;;2.88;;
72284;SDS011;60220;53.552;10.092;2023-06-10T01:29:14;7.15;;;2.72;;
72284;SDS011;60220;53.552;10.092;2023-06-10T01:31:47;6.78;;;2.63;;
72284;SDS011;60220;53.552;10.092;2023-06-10T01:34:16;9.18;;;2.75;;
72284;SDS011;60220;53.552;10.092;2023-06-10T01:36:46;7.95;;;2.88;;
72284;SDS011;60220;53.552;10.092;2023-06-10T01:39:17;7.63;;;3.05;;
72284;SDS011;60220;53.552;10.092;2023-06-10T01:41:49;6.63;;;2.75;;
72284;SDS011;60220;53.552;10.092;2023-06-10T01:44:18;4.70;;;3.13;;
72284;SDS011;60220;53.552;10.092;2023-06-10T01:46:45;6.55;;;2.90;;
72284;SDS011;60220;53.552;10.092;2023-06-10T01:49:12;3.50;;;2.53;;
72284;SDS011;60220;53.552;10.092;2023-06-10T01:51:41;5.30;;;2.50;;
72284;SDS011;60220;53.552;10.092;2023-06-10T01:54:09;7.00;;;2.42;;
72284;SDS011;60220;53.552;10.092;2023-06-10T01:56:36;4.22;;;2.58;;
72284;SDS011;60220;53.552;10.092;2023-06-10T01:59:02;4.95;;;3.03;;
72284;SDS011;60220;53.552;10.092;2023-06-10T02:01:31;6.45;;;2.67;;
72284;SDS011;60220;53.552;10.092;2023-06-10T02:03:59;8.77;;;3.00;;
72284;SDS011;60220;53.552;10.092;2023-06-10T02:06:25;6.55;;;2.88;;
72284;SDS011;60220;53.552;10.092;2023-06-10T02:08:52;5.88;;;2.60;;
72284;SDS011;60220;53.552;10.092;2023-06-10T02:11:20;3.92;;;2.80;;
72284;SDS011;60220;53.552;10.092;2023-06-10T02:13:49;5.60;;;2.70;;
72284;SDS011;60220;53.552;10.092;2023-06-10T02:16:16;5.60;;;2.53;;
72284;SDS011;60220;53.552;10.092;2023-06-10T02:18:42;3.03;;;2.60;;
72284;SDS011;60220;53.552;10.092;2023-06-10T02:21:16;2.78;;;2.20;;
72284;SDS011;60220;53.552;10.092;2023-06-10T02:23:42;4.65;;;2.15;;
72284;SDS011;60220;53.552;10.092;2023-06-10T02:26:09;3.50;;;2.72;;
72284;SDS011;60220;53.552;10.092;2023-06-10T02:28:37;5.32;;;2.03;;
72284;SDS011;60220;53.552;10.092;2023-06-10T02:31:06;6.18;;;2.40;;
72284;SDS011;60220;53.552;10.092;2023-06-10T02:33:32;4.43;;;2.13;;
72284;SDS011;60220;53.552;10.092;2023-06-10T02:35:59;9.02;;;2.35;;
72284;SDS011;60220;53.552;10.092;2023-06-10T02:38:26;1.98;;;1.83;;
72284;SDS011;60220;53.552;10.092;2023-06-10T02:40:57;4.07;;;2.55;;
72284;SDS011;60220;53.552;10.092;2023-06-10T02:43:24;6.45;;;2.50;;
72284;SDS011;60220;53.552;10.092;2023-06-10T02:45:52;5.45;;;2.13;;
72284;SDS011;60220;53.552;10.092;2023-06-10T02:48:23;3.13;;;2.03;;
72284;SDS011;60220;53.552;10.092;2023-06-10T02:50:50;5.68;;;2.15;;
72284;SDS011;60220;53.552;10.092;2023-06-10T02:53:19;3.10;;;2.40;;
72284;SDS011;60220;53.552;10.092;2023-06-10T02:55:46;5.07;;;2.70;;
72284;SDS011;60220;53.552;10.092;2023-06-10T02:58:15;3.17;;;1.95;;
72284;SDS011;60220;53.552;10.092;2023-06-10T03:00:41;6.18;;;2.45;;
72284;SDS011;60220;53.552;10.092;2023-06-10T03:03:10;3.67;;;2.20;;
72284;SDS011;60220;53.552;10.092;2023-06-10T03:05:37;3.08;;;1.70;;
72284;SDS011;60220;53.552;10.092;2023-06-10T03:08:05;3.97;;;1.85;;
72284;SDS011;60220;53.552;10.092;2023-06-10T03:10:32;5.38;;;2.53;;
72284;SDS011;60220;53.552;10.092;2023-06-10T03:13:01;3.38;;;2.10;;
72284;SDS011;60220;53.552;10.092;2023-06-10T03:15:28;4.40;;;2.42;;
72284;SDS011;60220;53.552;10.092;2023-06-10T03:18:00;3.67;;;2.05;;
72284;SDS011;60220;53.552;10.092;2023-06-10T03:20:31;3.50;;;2.47;;
72284;SDS011;60220;53.552;10.092;2023-06-10T03:23:04;5.47;;;2.15;;
72284;SDS011;60220;53.552;10.092;2023-06-10T03:25:34;5.88;;;2.55;;
72284;SDS011;60220;53.552;10.092;2023-06-10T03:28:01;4.03;;;2.20;;
72284;SDS011;60220;53.552;10.092;2023-06-10T03:30:28;4.93;;;2.35;;
72284;SDS011;60220;53.552;10.092;2023-06-10T03:32:57;2.58;;;2.00;;
72284;SDS011;60220;53.552;10.092;2023-06-10T03:35:23;4.20;;;2.35;;
72284;SDS011;60220;53.552;10.092;2023-06-10T03:37:51;5.40;;;2.20;;
72284;SDS011;60220;53.552;10.092;2023-06-10T03:40:18;8.10;;;2.05;;
72284;SDS011;60220;53.552;10.092;2023-06-10T03:42:45;6.47;;;2.30;;
72284;SDS011;60220;53.552;10.092;2023-06-10T03:45:11;2.00;;;1.90;;
72284;SDS011;60220;53.552;10.092;2023-06-10T03:47:38;5.40;;;2.28;;
72284;SDS011;60220;53.552;10.092;2023-06-10T03:50:06;5.60;;;2.65;;
72284;SDS011;60220;53.552;10.092;2023-06-10T03:52:34;4.57;;;2.63;;
72284;SDS011;60220;53.552;10.092;2023-06-10T03:55:02;3.33;;;2.22;;
72284;SDS011;60220;53.552;10.092;2023-06-10T03:57:30;4.80;;;2.30;;
72284;SDS011;60220;53.552;10.092;2023-06-10T03:59:56;2.28;;;2.10;;
72284;SDS011;60220;53.552;10.092;2023-06-10T04:02:24;5.72;;;1.95;;
72284;SDS011;60220;53.552;10.092;2023-06-10T04:04:50;5.65;;;2.40;;
72284;SDS011;60220;53.552;10.092;2023-06-10T04:07:17;4.28;;;2.38;;
72284;SDS011;60220;53.552;10.092;2023-06-10T04:09:48;5.28;;;2.35;;
72284;SDS011;60220;53.552;10.092;2023-06-10T04:12:17;6.05;;;2.38;;
72284;SDS011;60220;53.552;10.092;2023-06-10T04:14:43;3.60;;;2.40;;
72284;SDS011;60220;53.552;10.092;2023-06-10T04:17:10;7.22;;;2.42;;
72284;SDS011;60220;53.552;10.092;2023-06-10T04:19:37;4.55;;;2.50;;
72284;SDS011;60220;53.552;10.092;2023-06-10T04:22:04;3.63;;;2.17;;
72284;SDS011;60220;53.552;10.092;2023-06-10T04:24:33;3.90;;;2.22;;
72284;SDS011;60220;53.552;10.092;2023-06-10T04:27:00;5.70;;;2.40;;
72284;SDS011;60220;53.552;10.092;2023-06-10T04:29:29;3.92;;;2.30;;
72284;SDS011;60220;53.552;10.092;2023-06-10T04:31:56;3.53;;;2.38;;
72284;SDS011;60220;53.552;10.092;2023-06-10T04:34:23;3.10;;;2.20;;
72284;SDS011;60220;53.552;10.092;2023-06-10T04:36:53;6.57;;;2.25;;
72284;SDS011;60220;53.552;10.092;2023-06-10T04:39:22;3.00;;;2.05;;
72284;SDS011;60220;53.552;10.092;2023-06-10T04:41:49;6.45;;;3.05;;
72284;SDS011;60220;53.552;10.092;2023-06-10T04:44:18;3.78;;;2.40;;
72284;SDS011;60220;53.552;10.092;2023-06-10T04:46:46;5.53;;;3.22;;
72284;SDS011;60220;53.552;10.092;2023-06-10T04:49:13;4.97;;;2.83;;
72284;SDS011;60220;53.552;10.092;2023-06-10T04:51:40;5.15;;;2.47;;
72284;SDS011;60220;53.552;10.092;2023-06-10T04:54:09;3.90;;;2.45;;
72284;SDS011;60220;53.552;10.092;2023-06-10T04:56:36;4.43;;;2.38;;
72284;SDS011;60220;53.552;10.092;2023-06-10T04:59:03;3.20;;;2.38;;
72284;SDS011;60220;53.552;10.092;2023-06-10T05:01:30;3.42;;;2.40;;
72284;SDS011;60220;53.552;10.092;2023-06-10T05:03:58;5.57;;;2.83;;
72284;SDS011;60220;53.552;10.092;2023-06-10T05:06:25;5.65;;;2.90;;
72284;SDS011;60220;53.552;10.092;2023-06-10T05:08:54;7.88;;;2.78;;
72284;SDS011;60220;53.552;10.092;2023-06-10T05:11:20;6.95;;;2.50;;
72284;SDS011;60220;53.552;10.092;2023-06-10T05:13:49;6.70;;;2.63;;
72284;SDS011;60220;53.552;10.092;2023-06-10T05:16:16;4.68;;;3.00;;
72284;SDS011;60220;53.552;10.092;2023-06-10T05:18:43;3.67;;;2.85;;
72284;SDS011;60220;53.552;10.092;2023-06-10T05:21:11;3.65;;;2.70;;
72284;SDS011;60220;53.552;10.092;2023-06-10T05:23:38;7.53;;;3.10;;
72284;SDS011;60220;53.552;10.092;2023-06-10T05:26:04;3.75;;;2.90;;
72284;SDS011;60220;53.552;10.092;2023-06-10T05:28:34;6.78;;;3.10;;
72284;SDS011;60220;53.552;10.092;2023-06-10T05:31:01;6.35;;;2.88;;
72284;SDS011;60220;53.552;10.092;2023-06-10T05:33:30;5.68;;;3.25;;
72284;SDS011;60220;53.552;10.092;2023-06-10T05:35:56;4.57;;;3.05;;
72284;SDS011;60220;53.552;10.092;2023-06-10T05:38:25;4.85;;;3.58;;
72284;SDS011;60220;53.552;10.092;2023-06-10T05:40:51;3.40;;;3.00;;
72284;SDS011;60220;53.552;10.092;2023-06-10T05:43:18;8.07;;;2.65;;
72284;SDS011;60220;53.552;10.092;2023-06-10T05:45:45;3.05;;;2.78;;
72284;SDS011;60220;53.552;10.092;2023-06-10T05:48:11;6.35;;;2.85;;
72284;SDS011;60220;53.552;10.092;2023-06-10T05:50:40;4.22;;;2.65;;
72284;SDS011;60220;53.552;10.092;2023-06-10T05:53:09;3.00;;;2.70;;
72284;SDS011;60220;53.552;10.092;2023-06-10T05:55:41;3.97;;;3.22;;
72284;SDS011;60220;53.552;10.092;2023-06-10T05:58:08;4.72;;;3.10;;
72284;SDS011;60220;53.552;10.092;2023-06-10T06:00:35;4.72;;;2.85;;
72284;SDS011;60220;53.552;10.092;2023-06-10T06:03:05;6.72;;;3.15;;
72284;SDS011;60220;53.552;10.092;2023-06-10T06:05:32;5.60;;;2.97;;
72284;SDS011;60220;53.552;10.092;2023-06-10T06:08:01;5.70;;;2.92;;
72284;SDS011;60220;53.552;10.092;2023-06-10T06:10:27;3.28;;;2.90;;
72284;SDS011;60220;53.552;10.092;2023-06-10T06:12:56;4.63;;;3.17;;
72284;SDS011;60220;53.552;10.092;2023-06-10T06:15:22;4.05;;;3.20;;
72284;SDS011;60220;53.552;10.092;2023-06-10T06:17:49;5.20;;;3.50;;
72284;SDS011;60220;53.552;10.092;2023-06-10T06:20:18;3.35;;;2.92;;
72284;SDS011;60220;53.552;10.092;2023-06-10T06:22:44;5.90;;;3.00;;
72284;SDS011;60220;53.552;10.092;2023-06-10T06:25:11;4.80;;;3.20;;
72284;SDS011;60220;53.552;10.092;2023-06-10T06:27:41;3.67;;;2.63;;
72284;SDS011;60220;53.552;10.092;2023-06-10T06:30:09;3.90;;;2.40;;
72284;SDS011;60220;53.552;10.092;2023-06-10T06:32:36;7.40;;;3.10;;
72284;SDS011;60220;53.552;10.092;2023-06-10T06:35:04;2.65;;;2.25;;
72284;SDS011;60220;53.552;10.092;2023-06-10T06:37:33;6.03;;;2.72;;
72284;SDS011;60220;53.552;10.092;2023-06-10T06:40:00;4.13;;;2.67;;
72284;SDS011;60220;53.552;10.092;2023-06-10T06:42:27;4.18;;;3.22;;
72284;SDS011;60220;53.552;10.092;2023-06-10T06:44:53;6.50;;;2.70;;
72284;SDS011;60220;53.552;10.092;2023-06-10T06:47:21;4.72;;;2.10;;
72284;SDS011;60220;53.552;10.092;2023-06-10T06:49:50;4.13;;;1.85;;
72284;SDS011;60220;53.552;10.092;2023-06-10T06:52:19;5.45;;;1.60;;
72284;SDS011;60220;53.552;10.092;2023-06-10T06:54:49;3.22;;;1.20;;
72284;SDS011;60220;53.552;10.092;2023-06-10T06:57:16;2.35;;;1.17;;
72284;SDS011;60220;53.552;10.092;2023-06-10T06:59:43;3.53;;;1.48;;
72284;SDS011;60220;53.552;10.092;2023-06-10T07:02:10;2.63;;;1.25;;
72284;SDS011;60220;53.552;10.092;2023-06-10T07:04:38;8.25;;;2.00;;
72284;SDS011;60220;53.552;10.092;2023-06-10T07:07:07;5.38;;;2.03;;
72284;SDS011;60220;53.552;10.092;2023-06-10T07:09:34;8.60;;;1.42;;
72284;SDS011;60220;53.552;10.092;2023-06-10T07:12:00;7.53;;;1.80;;
72284;SDS011;60220;53.552;10.092;2023-06-10T07:14:27;4.82;;;1.20;;
72284;SDS011;60220;53.552;10.092;2023-06-10T07:16:54;3.15;;;1.30;;
72284;SDS011;60220;53.552;10.092;2023-06-10T07:19:20;2.13;;;1.00;;
72284;SDS011;60220;53.552;10.092;2023-06-10T07:21:48;2.22;;;1.48;;
72284;SDS011;60220;53.552;10.092;2023-06-10T07:24:17;4.95;;;2.28;;
72284;SDS011;60220;53.552;10.092;2023-06-10T07:26:45;4.95;;;1.55;;
72284;SDS011;60220;53.552;10.092;2023-06-10T07:29:14;2.03;;;1.20;;
72284;SDS011;60220;53.552;10.092;2023-06-10T07:31:40;3.17;;;1.75;;
72284;SDS011;60220;53.552;10.092;2023-06-10T07:34:07;4.68;;;1.23;;
72284;SDS011;60220;53.552;10.092;2023-06-10T07:36:34;4.72;;;1.30;;
72284;SDS011;60220;53.552;10.092;2023-06-10T07:39:03;2.35;;;1.20;;
72284;SDS011;60220;53.552;10.092;2023-06-10T07:41:31;4.75;;;1.63;;
72284;SDS011;60220;53.552;10.092;2023-06-10T07:43:57;3.85;;;1.30;;
72284;SDS011;60220;53.552;10.092;2023-06-10T07:46:27;3.13;;;1.13;;
72284;SDS011;60220;53.552;10.092;2023-06-10T07:48:56;2.90;;;1.17;;
72284;SDS011;60220;53.552;10.092;2023-06-10T07:51:22;2.88;;;1.30;;
72284;SDS011;60220;53.552;10.092;2023-06-10T07:53:49;2.97;;;1.40;;
72284;SDS011;60220;53.552;10.092;2023-06-10T07:56:17;3.95;;;1.17;;
72284;SDS011;60220;53.552;10.092;2023-06-10T07:58:45;6.65;;;1.45;;
72284;SDS011;60220;53.552;10.092;2023-06-10T08:01:12;3.10;;;1.58;;
72284;SDS011;60220;53.552;10.092;2023-06-10T08:03:39;2.67;;;1.50;;
72284;SDS011;60220;53.552;10.092;2023-06-10T08:06:05;3.78;;;2.05;;
72284;SDS011;60220;53.552;10.092;2023-06-10T08:08:32;4.38;;;1.00;;
72284;SDS011;60220;53.552;10.092;2023-06-10T08:10:59;4.68;;;1.90;;
72284;SDS011;60220;53.552;10.092;2023-06-10T08:13:27;3.17;;;1.48;;
72284;SDS011;60220;53.552;10.092;2023-06-10T08:15:56;3.10;;;1.20;;
72284;SDS011;60220;53.552;10.092;2023-06-10T08:18:23;3.72;;;1.65;;
72284;SDS011;60220;53.552;10.092;2023-06-10T08:20:49;4.25;;;1.92;;
72284;SDS011;60220;53.552;10.092;2023-06-10T08:23:16;4.68;;;1.67;;
72284;SDS011;60220;53.552;10.092;2023-06-10T08:25:45;3.45;;;1.50;;
72284;SDS011;60220;53.552;10.092;2023-06-10T08:28:14;2.28;;;1.25;;
72284;SDS011;60220;53.552;10.092;2023-06-10T08:30:42;7.65;;;1.95;;
72284;SDS011;60220;53.552;10.092;2023-06-10T08:33:09;2.35;;;1.10;;
72284;SDS011;60220;53.552;10.092;2023-06-10T08:35:36;3.63;;;1.50;;
72284;SDS011;60220;53.552;10.092;2023-06-10T08:38:05;4.32;;;1.70;;
72284;SDS011;60220;53.552;10.092;2023-06-10T08:40:34;4.95;;;1.70;;
72284;SDS011;60220;53.552;10.092;2023-06-10T08:43:04;3.95;;;1.83;;
72284;SDS011;60220;53.552;10.092;2023-06-10T08:45:40;2.35;;;1.70;;
72284;SDS011;60220;53.552;10.092;2023-06-10T08:48:14;3.17;;;1.58;;
72284;SDS011;60220;53.552;10.092;2023-06-10T08:50:43;7.35;;;1.48;;
72284;SDS011;60220;53.552;10.092;2023-06-10T08:53:11;4.97;;;1.75;;
72284;SDS011;60220;53.552;10.092;2023-06-10T08:55:44;4.18;;;1.63;;
72284;SDS011;60220;53.552;10.092;2023-06-10T08:58:17;4.72;;;1.83;;
72284;SDS011;60220;53.552;10.092;2023-06-10T09:00:45;3.25;;;1.88;;
72284;SDS011;60220;53.552;10.092;2023-06-10T09:03:14;5.25;;;1.30;;
72284;SDS011;60220;53.552;10.092;2023-06-10T09:05:41;2.45;;;1.98;;
72284;SDS011;60220;53.552;10.092;2023-06-10T09:08:08;8.00;;;1.95;;
72284;SDS011;60220;53.552;10.092;2023-06-10T09:10:37;4.68;;;1.80;;
72284;SDS011;60220;53.552;10.092;2023-06-10T09:13:05;7.97;;;2.15;;
72284;SDS011;60220;53.552;10.092;2023-06-10T09:15:32;4.45;;;1.48;;
72284;SDS011;60220;53.552;10.092;2023-06-10T09:18:00;5.50;;;1.55;;
72284;SDS011;60220;53.552;10.092;2023-06-10T09:20:27;7.28;;;2.33;;
72284;SDS011;60220;53.552;10.092;2023-06-10T09:22:53;5.63;;;2.28;;
72284;SDS011;60220;53.552;10.092;2023-06-10T09:25:20;3.90;;;1.83;;
72284;SDS011;60220;53.552;10.092;2023-06-10T09:28:03;3.08;;;1.30;;
72284;SDS011;60220;53.552;10.092;2023-06-10T09:30:30;6.43;;;2.42;;
72284;SDS011;60220;53.552;10.092;2023-06-10T09:33:02;4.28;;;1.90;;
72284;SDS011;60220;53.552;10.092;2023-06-10T09:35:30;3.75;;;1.70;;
72284;SDS011;60220;53.552;10.092;2023-06-10T09:38:00;6.13;;;2.03;;
72284;SDS011;60220;53.552;10.092;2023-06-10T09:40:27;6.35;;;2.08;;
72284;SDS011;60220;53.552;10.092;2023-06-10T09:42:54;4.63;;;2.13;;
72284;SDS011;60220;53.552;10.092;2023-06-10T09:45:22;2.85;;;1.67;;
72284;SDS011;60220;53.552;10.092;2023-06-10T09:47:51;5.82;;;1.45;;
72284;SDS011;60220;53.552;10.092;2023-06-10T09:50:20;5.78;;;1.80;;
72284;SDS011;60220;53.552;10.092;2023-06-10T09:52:46;5.13;;;1.90;;
72284;SDS011;60220;53.552;10.092;2023-06-10T09:55:14;5.55;;;2.03;;
72284;SDS011;60220;53.552;10.092;2023-06-10T09:57:41;3.83;;;1.80;;
72284;SDS011;60220;53.552;10.092;2023-06-10T10:00:10;4.95;;;2.13;;
72284;SDS011;60220;53.552;10.092;2023-06-10T10:02:43;3.17;;;1.50;;
72284;SDS011;60220;53.552;10.092;2023-06-10T10:05:12;4.03;;;2.13;;
72284;SDS011;60220;53.552;10.092;2023-06-10T10:07:41;4.93;;;2.22;;
72284;SDS011;60220;53.552;10.092;2023-06-10T10:10:11;6.15;;;2.08;;
72284;SDS011;60220;53.552;10.092;2023-06-10T10:12:39;3.10;;;1.77;;
72284;SDS011;60220;53.552;10.092;2023-06-10T10:15:07;7.75;;;2.00;;
72284;SDS011;60220;53.552;10.092;2023-06-10T10:17:35;7.18;;;2.15;;
72284;SDS011;60220;53.552;10.092;2023-06-10T10:20:06;5.20;;;1.73;;
72284;SDS011;60220;53.552;10.092;2023-06-10T10:22:35;3.60;;;1.98;;
72284;SDS011;60220;53.552;10.092;2023-06-10T10:25:07;3.80;;;1.63;;
72284;SDS011;60220;53.552;10.092;2023-06-10T10:27:40;9.38;;;2.10;;
72284;SDS011;60220;53.552;10.092;2023-06-10T10:30:10;8.10;;;2.72;;
72284;SDS011;60220;53.552;10.092;2023-06-10T10:32:42;4.40;;;1.70;;
72284;SDS011;60220;53.552;10.092;2023-06-10T10:35:17;3.47;;;2.00;;
72284;SDS011;60220;53.552;10.092;2023-06-10T10:37:51;3.60;;;1.75;;
72284;SDS011;60220;53.552;10.092;2023-06-10T10:40:20;5.60;;;1.90;;
72284;SDS011;60220;53.552;10.092;2023-06-10T10:42:48;4.75;;;1.95;;
72284;SDS011;60220;53.552;10.092;2023-06-10T10:45:16;5.60;;;2.25;;
72284;SDS011;60220;53.552;10.092;2023-06-10T10:47:43;3.80;;;1.50;;
72284;SDS011;60220;53.552;10.092;2023-06-10T10:50:15;3.15;;;2.17;;
72284;SDS011;60220;53.552;10.092;2023-06-10T10:52:52;4.45;;;1.73;;
72284;SDS011;60220;53.552;10.092;2023-06-10T10:55:22;4.07;;;1.83;;
72284;SDS011;60220;53.552;10.092;2023-06-10T10:57:56;4.72;;;2.00;;
72284;SDS011;60220;53.552;10.092;2023-06-10T11:00:29;5.13;;;1.92;;
72284;SDS011;60220;53.552;10.092;2023-06-10T11:03:03;7.97;;;2.42;;
72284;SDS011;60220;53.552;10.092;2023-06-10T11:05:35;5.40;;;1.92;;
72284;SDS011;60220;53.552;10.092;2023-06-10T11:08:04;7.43;;;2.92;;
72284;SDS011;60220;53.552;10.092;2023-06-10T11:10:34;4.30;;;2.15;;
72284;SDS011;60220;53.552;10.092;2023-06-10T11:13:05;5.97;;;2.13;;
72284;SDS011;60220;53.552;10.092;2023-06-10T11:15:33;3.47;;;1.95;;
72284;SDS011;60220;53.552;10.092;2023-06-10T11:18:13;3.70;;;1.98;;
72284;SDS011;60220;53.552;10.092;2023-06-10T11:20:42;3.35;;;2.05;;
72284;SDS011;60220;53.552;10.092;2023-06-10T11:23:10;3.70;;;2.10;;
72284;SDS011;60220;53.552;10.092;2023-06-10T11:25:51;5.30;;;2.03;;
72284;SDS011;60220;53.552;10.092;2023-06-10T11:28:36;3.53;;;2.00;;
72284;SDS011;60220;53.552;10.092;2023-06-10T11:31:02;6.90;;;2.42;;
72284;SDS011;60220;53.552;10.092;2023-06-10T11:33:29;5.53;;;2.40;;
72284;SDS011;60220;53.552;10.092;2023-06-10T11:35:57;5.75;;;2.17;;
72284;SDS011;60220;53.552;10.092;2023-06-10T11:38:26;9.18;;;3.20;;
72284;SDS011;60220;53.552;10.092;2023-06-10T11:40:58;4.65;;;2.15;;
72284;SDS011;60220;53.552;10.092;2023-06-10T11:43:24;5.10;;;2.70;;
72284;SDS011;60220;53.552;10.092;2023-06-10T11:45:53;5.82;;;2.08;;
72284;SDS011;60220;53.552;10.092;2023-06-10T11:48:21;6.40;;;2.45;;
72284;SDS011;60220;53.552;10.092;2023-06-10T11:50:47;4.65;;;2.45;;
72284;SDS011;60220;53.552;10.092;2023-06-10T11:53:14;5.43;;;1.92;;
72284;SDS011;60220;53.552;10.092;2023-06-10T11:55:41;5.97;;;2.45;;
72284;SDS011;60220;53.552;10.092;2023-06-10T11:58:13;6.07;;;2.72;;
72284;SDS011;60220;53.552;10.092;2023-06-10T12:00:44;7.32;;;2.80;;
72284;SDS011;60220;53.552;10.092;2023-06-10T12:03:12;6.68;;;2.67;;
72284;SDS011;60220;53.552;10.092;2023-06-10T12:05:39;6.93;;;2.28;;
72284;SDS011;60220;53.552;10.092;2023-06-10T12:08:08;4.32;;;2.38;;
72284;SDS011;60220;53.552;10.092;2023-06-10T12:10:39;3.47;;;1.95;;
72284;SDS011;60220;53.552;10.092;2023-06-10T12:13:06;3.53;;;2.17;;
72284;SDS011;60220;53.552;10.092;2023-06-10T12:15:34;5.20;;;2.22;;
72284;SDS011;60220;53.552;10.092;2023-06-10T12:18:01;4.20;;;2.65;;
72284;SDS011;60220;53.552;10.092;2023-06-10T12:20:30;4.40;;;2.00;;
72284;SDS011;60220;53.552;10.092;2023-06-10T12:23:08;6.32;;;2.08;;
72284;SDS011;60220;53.552;10.092;2023-06-10T12:25:35;5.47;;;2.53;;
72284;SDS011;60220;53.552;10.092;2023-06-10T12:28:03;3.42;;;1.90;;
72284;SDS011;60220;53.552;10.092;2023-06-10T12:30:31;4.93;;;2.45;;
72284;SDS011;60220;53.552;10.092;2023-06-10T12:33:02;3.00;;;2.00;;
72284;SDS011;60220;53.552;10.092;2023-06-10T12:35:31;4.43;;;2.78;;
72284;SDS011;60220;53.552;10.092;2023-06-10T12:37:58;3.90;;;2.33;;
72284;SDS011;60220;53.552;10.092;2023-06-10T12:40:27;4.75;;;2.67;;
72284;SDS011;60220;53.552;10.092;2023-06-10T12:42:55;3.58;;;2.30;;
72284;SDS011;60220;53.552;10.092;2023-06-10T12:45:28;6.35;;;2.47;;
72284;SDS011;60220;53.552;10.092;2023-06-10T12:48:07;5.65;;;2.20;;
72284;SDS011;60220;53.552;10.092;2023-06-10T12:50:38;3.65;;;2.00;;
72284;SDS011;60220;53.552;10.092;2023-06-10T12:53:06;7.97;;;2.35;;
72284;SDS011;60220;53.552;10.092;2023-06-10T12:55:35;6.95;;;2.88;;
72284;SDS011;60220;53.552;10.092;2023-06-10T12:58:04;3.58;;;2.25;;
72284;SDS011;60220;53.552;10.092;2023-06-10T13:00:31;8.15;;;2.22;;
72284;SDS011;60220;53.552;10.092;2023-06-10T13:03:00;4.05;;;2.45;;
72284;SDS011;60220;53.552;10.092;2023-06-10T13:05:29;4.47;;;2.72;;
72284;SDS011;60220;53.552;10.092;2023-06-10T13:07:58;4.00;;;2.15;;
72284;SDS011;60220;53.552;10.092;2023-06-10T13:10:27;6.05;;;2.80;;
72284;SDS011;60220;53.552;10.092;2023-06-10T13:12:53;8.85;;;4.47;;
72284;SDS011;60220;53.552;10.092;2023-06-10T13:15:23;5.05;;;2.38;;
72284;SDS011;60220;53.552;10.092;2023-06-10T13:17:53;6.20;;;2.35;;
72284;SDS011;60220;53.552;10.092;2023-06-10T13:20:20;4.30;;;2.40;;
72284;SDS011;60220;53.552;10.092;2023-06-10T13:22:48;5.00;;;2.70;;
72284;SDS011;60220;53.552;10.092;2023-06-10T13:25:15;5.25;;;2.78;;
72284;SDS011;60220;53.552;10.092;2023-06-10T13:27:41;6.47;;;2.50;;
72284;SDS011;60220;53.552;10.092;2023-06-10T13:30:09;7.45;;;2.83;;
72284;SDS011;60220;53.552;10.092;2023-06-10T13:32:36;6.90;;;3.88;;
72284;SDS011;60220;53.552;10.092;2023-06-10T13:35:03;13.38;;;5.60;;
72284;SDS011;60220;53.552;10.092;2023-06-10T13:37:33;15.50;;;6.28;;
72284;SDS011;60220;53.552;10.092;2023-06-10T13:40:01;15.07;;;5.13;;
72284;SDS011;60220;53.552;10.092;2023-06-10T13:42:28;6.30;;;2.97;;
72284;SDS011;60220;53.552;10.092;2023-06-10T13:44:55;10.65;;;3.13;;
72284;SDS011;60220;53.552;10.092;2023-06-10T13:47:22;8.30;;;3.38;;
72284;SDS011;60220;53.552;10.092;2023-06-10T13:49:49;5.03;;;2.63;;
72284;SDS011;60220;53.552;10.092;2023-06-10T13:52:16;5.78;;;2.88;;
72284;SDS011;60220;53.552;10.092;2023-06-10T13:54:45;10.52;;;4.15;;
72284;SDS011;60220;53.552;10.092;2023-06-10T13:57:13;5.72;;;2.60;;
72284;SDS011;60220;53.552;10.092;2023-06-10T13:59:40;8.63;;;3.13;;
72284;SDS011;60220;53.552;10.092;2023-06-10T14:02:08;4.38;;;2.13;;
72284;SDS011;60220;53.552;10.092;2023-06-10T14:04:35;4.65;;;2.28;;
72284;SDS011;60220;53.552;10.092;2023-06-10T14:07:02;6.57;;;2.15;;
72284;SDS011;60220;53.552;10.092;2023-06-10T14:09:32;4.22;;;1.67;;
72284;SDS011;60220;53.552;10.092;2023-06-10T14:12:02;11.00;;;2.47;;
72284;SDS011;60220;53.552;10.092;2023-06-10T14:14:31;8.27;;;3.30;;
72284;SDS011;60220;53.552;10.092;2023-06-10T14:16:58;7.20;;;2.33;;
72284;SDS011;60220;53.552;10.092;2023-06-10T14:19:25;5.28;;;1.75;;
72284;SDS011;60220;53.552;10.092;2023-06-10T14:21:51;4.18;;;1.88;;
72284;SDS011;60220;53.552;10.092;2023-06-10T14:24:20;5.30;;;2.20;;
72284;SDS011;60220;53.552;10.092;2023-06-10T14:26:47;4.00;;;1.55;;
72284;SDS011;60220;53.552;10.092;2023-06-10T14:29:13;8.20;;;1.85;;
72284;SDS011;60220;53.552;10.092;2023-06-10T14:31:41;5.68;;;2.13;;
72284;SDS011;60220;53.552;10.092;2023-06-10T14:34:08;4.53;;;1.92;;
72284;SDS011;60220;53.552;10.092;2023-06-10T14:36:35;2.60;;;1.27;;
72284;SDS011;60220;53.552;10.092;2023-06-10T14:39:02;8.98;;;1.77;;
72284;SDS011;60220;53.552;10.092;2023-06-10T14:41:29;5.45;;;1.48;;